createdAt,value
2018-05-25T00:01:51.811Z,16.43
2018-05-25T00:04:19.667Z,16.41
2018-05-25T00:06:47.297Z,16.39
2018-05-25T00:09:14.901Z,16.38
2018-05-25T00:11:42.484Z,16.47
2018-05-25T00:14:10.200Z,16.47
2018-05-25T00:16:37.802Z,16.48
2018-05-25T00:19:05.401Z,16.52
2018-05-25T00:21:33.394Z,16.50
2018-05-25T00:24:01.166Z,16.53
2018-05-25T00:26:28.759Z,16.59
2018-05-25T00:28:56.362Z,16.57
2018-05-25T00:31:24.008Z,16.51
2018-05-25T00:33:51.589Z,16.47
2018-05-25T00:36:19.280Z,16.45
2018-05-25T00:38:46.879Z,16.40
2018-05-25T00:41:14.469Z,16.39
2018-05-25T00:43:42.136Z,16.30
2018-05-25T00:46:09.974Z,16.24
2018-05-25T00:48:37.793Z,16.21
2018-05-25T00:51:05.612Z,16.25
2018-05-25T00:53:33.217Z,16.28
2018-05-25T00:56:00.828Z,16.33
2018-05-25T00:58:28.567Z,16.28
2018-05-25T01:00:56.208Z,16.25
2018-05-25T01:03:23.985Z,16.21
2018-05-25T01:05:51.661Z,16.18
2018-05-25T01:08:19.244Z,16.17
2018-05-25T01:10:46.824Z,16.10
2018-05-25T01:13:14.424Z,16.06
2018-05-25T01:15:42.016Z,16.11
2018-05-25T01:18:09.817Z,16.18
2018-05-25T01:20:37.550Z,16.13
2018-05-25T01:23:05.451Z,16.10
2018-05-25T01:25:33.033Z,16.11
2018-05-25T01:28:00.619Z,16.14
2018-05-25T01:30:28.210Z,16.11
2018-05-25T01:32:55.926Z,16.06
2018-05-25T01:35:23.685Z,16.01
2018-05-25T01:37:51.419Z,15.99
2018-05-25T01:40:19.004Z,15.98
2018-05-25T01:42:46.620Z,15.94
2018-05-25T01:45:14.393Z,15.93
2018-05-25T01:47:42.233Z,15.96
2018-05-25T01:50:09.815Z,15.97
2018-05-25T01:52:37.448Z,16.00
2018-05-25T01:55:05.066Z,16.04
2018-05-25T01:57:32.657Z,16.06
2018-05-25T02:00:00.264Z,16.04
2018-05-25T02:02:28.041Z,16.04
2018-05-25T02:04:55.648Z,16.00
2018-05-25T02:07:23.476Z,16.00
2018-05-25T02:09:51.235Z,16.05
2018-05-25T02:12:19.012Z,16.02
2018-05-25T02:14:46.831Z,16.01
2018-05-25T02:17:14.424Z,16.01
2018-05-25T02:19:42.017Z,16.03
2018-05-25T02:22:09.612Z,16.03
2018-05-25T02:24:37.198Z,16.05
2018-05-25T02:27:04.858Z,16.03
2018-05-25T02:29:32.476Z,16.07
2018-05-25T02:32:00.060Z,16.03
2018-05-25T02:34:27.653Z,16.07
2018-05-25T02:36:55.236Z,15.99
2018-05-25T02:39:22.840Z,15.96
2018-05-25T02:41:50.628Z,15.93
2018-05-25T02:44:18.548Z,15.92
2018-05-25T02:46:46.368Z,15.89
2018-05-25T02:49:13.952Z,15.93
2018-05-25T02:51:41.673Z,15.92
2018-05-25T02:54:09.256Z,15.86
2018-05-25T02:56:36.837Z,15.84
2018-05-25T02:59:04.424Z,15.79
2018-05-25T03:01:32.086Z,15.76
2018-05-25T03:03:59.676Z,15.67
2018-05-25T03:06:27.277Z,15.63
2018-05-25T03:08:55.030Z,15.66
2018-05-25T03:11:22.608Z,15.72
2018-05-25T03:13:50.230Z,15.71
2018-05-25T03:16:17.860Z,15.71
2018-05-25T03:18:45.581Z,15.69
2018-05-25T03:21:13.419Z,15.68
2018-05-25T03:23:41.237Z,15.74
2018-05-25T03:26:08.940Z,15.79
2018-05-25T03:28:36.488Z,15.85
2018-05-25T03:31:04.120Z,15.85
2018-05-25T03:33:31.912Z,15.93
2018-05-25T03:35:59.697Z,15.98
2018-05-25T03:38:27.447Z,16.06
2018-05-25T03:40:55.024Z,16.15
2018-05-25T03:43:22.630Z,16.26
2018-05-25T03:45:50.337Z,16.34
2018-05-25T03:48:17.957Z,16.36
2018-05-25T03:50:45.536Z,16.38
2018-05-25T03:53:13.176Z,16.32
2018-05-25T03:55:40.769Z,16.31
2018-05-25T03:58:08.595Z,16.28
2018-05-25T04:00:48.152Z,16.26
2018-05-25T04:03:15.767Z,16.36
2018-05-25T04:05:43.356Z,16.42
2018-05-25T04:08:11.434Z,16.45
2018-05-25T04:10:40.530Z,16.49
2018-05-25T04:13:09.565Z,16.55
2018-05-25T04:15:37.375Z,16.65
2018-05-25T04:18:04.984Z,16.71
2018-05-25T04:20:32.723Z,16.78
2018-05-25T04:23:00.320Z,16.87
2018-05-25T04:25:28.103Z,16.96
2018-05-25T04:27:55.845Z,17.01
2018-05-25T04:30:23.435Z,17.10
2018-05-25T04:32:51.292Z,17.18
2018-05-25T04:35:18.884Z,17.15
2018-05-25T04:37:47.540Z,17.15
2018-05-25T04:40:15.198Z,17.18
2018-05-25T04:42:42.780Z,17.22
2018-05-25T04:45:10.562Z,17.27
2018-05-25T04:47:38.153Z,17.33
2018-05-25T04:50:05.821Z,17.36
2018-05-25T04:52:33.445Z,17.45
2018-05-25T04:55:01.148Z,17.57
2018-05-25T04:57:28.746Z,17.73
2018-05-25T04:59:56.563Z,17.82
2018-05-25T05:02:24.425Z,17.87
2018-05-25T05:04:52.044Z,17.89
2018-05-25T05:07:19.625Z,18.01
2018-05-25T05:09:47.366Z,18.19
2018-05-25T05:12:14.956Z,18.37
2018-05-25T05:14:42.648Z,18.54
2018-05-25T05:17:10.245Z,18.61
2018-05-25T05:19:38.022Z,18.76
2018-05-25T05:22:05.774Z,18.94
2018-05-25T05:24:33.385Z,19.15
2018-05-25T05:27:01.033Z,19.33
2018-05-25T05:29:28.711Z,19.51
2018-05-25T05:31:56.309Z,19.73
2018-05-25T05:34:23.974Z,19.96
2018-05-25T05:36:51.560Z,20.16
2018-05-25T05:39:19.144Z,20.31
2018-05-25T05:41:46.855Z,20.48
2018-05-25T05:44:14.434Z,20.65
2018-05-25T05:46:42.246Z,20.76
2018-05-25T05:49:09.832Z,20.90
2018-05-25T05:51:37.990Z,21.05
2018-05-25T05:54:05.612Z,21.20
2018-05-25T05:56:33.199Z,21.37
2018-05-25T05:59:00.841Z,21.49
2018-05-25T06:01:28.460Z,21.77
2018-05-25T06:03:56.074Z,21.98
2018-05-25T06:06:23.893Z,22.20
2018-05-25T06:08:51.711Z,22.38
2018-05-25T06:11:19.300Z,22.51
2018-05-25T06:13:46.876Z,22.51
2018-05-25T06:16:14.532Z,22.55
2018-05-25T06:18:42.392Z,22.68
2018-05-25T06:21:09.977Z,22.82
2018-05-25T06:23:37.742Z,22.93
2018-05-25T06:26:05.349Z,22.99
2018-05-25T06:28:33.019Z,22.89
2018-05-25T06:31:18.035Z,23.08
2018-05-25T06:33:45.604Z,23.06
2018-05-25T06:36:13.245Z,23.27
2018-05-25T06:38:40.887Z,23.41
2018-05-25T06:41:08.475Z,23.65
2018-05-25T06:43:39.061Z,23.89
2018-05-25T06:46:06.739Z,24.31
2018-05-25T06:48:34.490Z,24.47
2018-05-25T06:51:02.074Z,24.70
2018-05-25T06:53:29.660Z,24.88
2018-05-25T06:55:58.149Z,25.00
2018-05-25T06:58:25.729Z,25.13
2018-05-25T07:00:53.763Z,25.21
2018-05-25T07:03:21.382Z,25.41
2018-05-25T07:05:49.025Z,25.25
2018-05-25T07:08:16.605Z,25.39
2018-05-25T07:10:44.183Z,25.34
2018-05-25T07:13:11.808Z,25.42
2018-05-25T07:15:39.566Z,25.20
2018-05-25T07:18:07.192Z,25.56
2018-05-25T07:20:34.786Z,25.95
2018-05-25T07:23:02.360Z,26.37
2018-05-25T07:25:30.065Z,26.60
2018-05-25T07:27:57.637Z,26.48
2018-05-25T07:30:25.208Z,26.54
2018-05-25T07:32:52.791Z,26.54
2018-05-25T07:35:20.386Z,26.46
2018-05-25T07:37:48.051Z,26.70
2018-05-25T07:40:15.660Z,27.04
2018-05-25T07:42:43.289Z,27.21
2018-05-25T07:45:10.872Z,27.06
2018-05-25T07:47:38.444Z,27.01
2018-05-25T07:50:06.039Z,27.15
2018-05-25T07:52:33.613Z,27.19
2018-05-25T07:55:01.196Z,27.50
2018-05-25T07:57:28.773Z,27.17
2018-05-25T07:59:56.410Z,26.88
2018-05-25T08:02:23.997Z,26.85
2018-05-25T08:04:51.612Z,26.77
2018-05-25T08:07:19.192Z,27.00
2018-05-25T08:09:46.773Z,27.31
2018-05-25T08:12:14.380Z,27.51
2018-05-25T08:14:41.960Z,27.78
2018-05-25T08:17:09.707Z,27.84
2018-05-25T08:19:37.288Z,28.14
2018-05-25T08:22:04.871Z,28.33
2018-05-25T08:24:32.460Z,28.36
2018-05-25T08:27:00.048Z,28.77
2018-05-25T08:29:27.872Z,29.09
2018-05-25T08:31:55.452Z,29.03
2018-05-25T08:34:23.091Z,28.83
2018-05-25T08:36:50.690Z,28.03
2018-05-25T08:39:18.271Z,27.77
2018-05-25T08:41:45.852Z,27.82
2018-05-25T08:44:15.015Z,27.36
2018-05-25T08:46:42.613Z,27.06
2018-05-25T08:49:10.224Z,27.12
2018-05-25T08:51:37.833Z,27.04
2018-05-25T08:54:05.424Z,27.25
2018-05-25T08:56:33.005Z,27.62
2018-05-25T08:59:00.597Z,27.49
2018-05-25T09:01:28.677Z,27.73
2018-05-25T09:03:56.376Z,27.45
2018-05-25T09:06:23.953Z,27.50
2018-05-25T09:08:51.580Z,27.78
2018-05-25T09:11:19.616Z,28.04
2018-05-25T09:13:47.208Z,27.76
2018-05-25T09:16:15.280Z,27.45
2018-05-25T09:18:42.888Z,27.80
2018-05-25T09:21:10.473Z,28.47
2018-05-25T09:23:38.069Z,28.61
2018-05-25T09:26:05.940Z,29.14
2018-05-25T09:28:33.520Z,29.49
2018-05-25T09:31:01.096Z,29.95
2018-05-25T09:33:28.753Z,30.56
2018-05-25T09:35:56.324Z,30.74
2018-05-25T09:38:23.941Z,30.61
2018-05-25T09:40:51.527Z,30.23
2018-05-25T09:43:19.346Z,30.48
2018-05-25T09:45:46.929Z,29.99
2018-05-25T09:48:14.498Z,29.40
2018-05-25T09:50:42.091Z,29.84
2018-05-25T09:53:10.246Z,30.29
2018-05-25T09:55:37.877Z,30.21
2018-05-25T09:58:05.477Z,30.00
2018-05-25T10:00:33.081Z,29.96
2018-05-25T10:03:00.669Z,29.76
2018-05-25T10:05:28.393Z,29.36
2018-05-25T10:07:55.980Z,28.83
2018-05-25T10:10:23.568Z,29.19
2018-05-25T10:12:51.161Z,29.48
2018-05-25T10:15:18.741Z,29.60
2018-05-25T10:17:46.319Z,29.48
2018-05-25T10:20:13.977Z,29.47
2018-05-25T10:22:41.648Z,29.33
2018-05-25T10:25:10.351Z,29.52
2018-05-25T10:27:37.928Z,29.98
2018-05-25T10:30:07.295Z,30.02
2018-05-25T10:32:34.900Z,29.88
2018-05-25T10:35:02.624Z,29.80
2018-05-25T10:37:30.224Z,29.80
2018-05-25T10:39:57.850Z,29.88
2018-05-25T10:42:25.473Z,29.79
2018-05-25T10:44:53.071Z,29.91
2018-05-25T10:47:20.681Z,30.08
2018-05-25T10:49:48.261Z,30.24
2018-05-25T10:52:15.927Z,29.81
2018-05-25T10:54:43.470Z,29.77
2018-05-25T10:57:11.120Z,29.71
2018-05-25T10:59:38.699Z,29.45
2018-05-25T11:02:06.456Z,29.12
2018-05-25T11:04:34.040Z,29.52
2018-05-25T11:07:01.636Z,29.72
2018-05-25T11:09:29.237Z,29.98
2018-05-25T11:11:56.832Z,30.28
2018-05-25T11:14:24.477Z,30.64
2018-05-25T11:16:52.078Z,30.66
2018-05-25T11:19:19.672Z,30.42
2018-05-25T11:21:47.256Z,30.08
2018-05-25T11:24:14.843Z,29.94
2018-05-25T11:26:42.465Z,30.20
2018-05-25T11:29:10.045Z,30.14
2018-05-25T11:31:37.677Z,30.05
2018-05-25T11:34:05.600Z,30.11
2018-05-25T11:36:33.192Z,30.52
2018-05-25T11:39:00.809Z,30.62
2018-05-25T11:41:28.393Z,30.47
2018-05-25T11:43:56.013Z,30.25
2018-05-25T11:46:23.590Z,30.31
2018-05-25T11:48:51.280Z,30.61
2018-05-25T11:51:19.072Z,30.62
2018-05-25T11:53:46.648Z,30.30
2018-05-25T11:56:14.844Z,30.28
2018-05-25T11:58:42.425Z,30.41
2018-05-25T12:01:10.033Z,30.52
2018-05-25T12:03:37.612Z,30.60
2018-05-25T12:06:05.376Z,30.66
2018-05-25T12:08:32.956Z,30.84
2018-05-25T12:11:00.601Z,30.88
2018-05-25T12:13:28.188Z,30.93
2018-05-25T12:15:55.769Z,30.88
2018-05-25T12:18:23.400Z,31.05
2018-05-25T12:20:51.025Z,30.94
2018-05-25T12:23:18.669Z,30.73
2018-05-25T12:25:46.261Z,30.49
2018-05-25T12:28:14.024Z,30.11
2018-05-25T12:30:42.105Z,30.12
2018-05-25T12:33:09.700Z,29.96
2018-05-25T12:35:37.280Z,30.27
2018-05-25T12:38:05.041Z,30.26
2018-05-25T12:40:32.709Z,30.26
2018-05-25T12:43:00.278Z,30.42
2018-05-25T12:45:27.920Z,30.72
2018-05-25T12:47:55.508Z,30.80
2018-05-25T12:50:23.082Z,30.96
2018-05-25T12:52:50.674Z,31.19
2018-05-25T12:55:18.266Z,31.36
2018-05-25T12:57:45.865Z,31.43
2018-05-25T13:00:13.448Z,30.97
2018-05-25T13:02:41.050Z,30.77
2018-05-25T13:05:08.844Z,30.81
2018-05-25T13:07:36.432Z,30.64
2018-05-25T13:10:04.240Z,30.51
2018-05-25T13:12:31.856Z,30.37
2018-05-25T13:14:59.432Z,29.97
2018-05-25T13:17:27.063Z,29.45
2018-05-25T13:19:54.656Z,29.02
2018-05-25T13:22:22.249Z,28.07
2018-05-25T13:24:49.888Z,26.85
2018-05-25T13:27:17.472Z,25.98
2018-05-25T13:29:45.273Z,25.49
2018-05-25T13:32:12.851Z,24.83
2018-05-25T13:34:40.555Z,24.11
2018-05-25T13:37:08.181Z,23.73
2018-05-25T13:39:35.817Z,23.37
2018-05-25T13:42:03.493Z,23.08
2018-05-25T13:44:31.080Z,22.86
2018-05-25T13:46:58.681Z,22.71
2018-05-25T13:49:26.362Z,22.45
2018-05-25T13:51:53.968Z,22.38
2018-05-25T13:54:21.563Z,22.28
2018-05-25T13:56:49.223Z,22.26
2018-05-25T13:59:16.837Z,22.07
2018-05-25T14:01:44.437Z,21.40
2018-05-25T14:04:12.121Z,20.66
2018-05-25T14:06:39.803Z,20.03
2018-05-25T14:09:07.516Z,19.56
2018-05-25T14:11:35.108Z,19.26
2018-05-25T14:14:02.851Z,19.08
2018-05-25T14:16:30.444Z,18.92
2018-05-25T14:18:58.085Z,18.85
2018-05-25T14:21:25.693Z,18.69
2018-05-25T14:23:53.277Z,18.81
2018-05-25T14:26:20.881Z,18.64
2018-05-25T14:28:48.460Z,18.43
2018-05-25T14:31:16.201Z,18.31
2018-05-25T14:33:43.886Z,18.20
2018-05-25T14:36:11.496Z,18.10
2018-05-25T14:38:39.094Z,18.13
2018-05-25T14:41:07.680Z,18.19
2018-05-25T14:43:35.337Z,18.24
2018-05-25T14:46:02.971Z,18.23
2018-05-25T14:48:30.572Z,18.20
2018-05-25T14:50:58.185Z,18.22
2018-05-25T14:53:25.771Z,18.25
2018-05-25T14:55:53.414Z,18.36
2018-05-25T14:58:21.012Z,18.47
2018-05-25T15:00:48.637Z,18.55
2018-05-25T15:03:16.232Z,18.52
2018-05-25T15:05:43.881Z,18.47
2018-05-25T15:08:11.581Z,18.53
2018-05-25T15:10:39.173Z,18.53
2018-05-25T15:13:06.865Z,18.54
2018-05-25T15:15:34.477Z,18.62
2018-05-25T15:18:02.094Z,18.66
2018-05-25T15:20:29.693Z,18.72
2018-05-25T15:22:57.279Z,18.75
2018-05-25T15:25:25.001Z,18.76
2018-05-25T15:27:52.609Z,18.61
2018-05-25T15:30:20.272Z,18.66
2018-05-25T15:32:47.980Z,18.96
2018-05-25T15:35:15.620Z,19.05
2018-05-25T15:37:43.333Z,19.16
2018-05-25T15:40:11.867Z,19.22
2018-05-25T15:42:39.452Z,19.25
2018-05-25T15:50:12.768Z,19.14
2018-05-25T15:52:40.438Z,19.25
2018-05-25T15:55:08.414Z,19.28
2018-05-25T15:57:35.968Z,19.30
2018-05-25T16:00:03.802Z,19.31
2018-05-25T16:02:31.394Z,19.29
2018-05-25T16:04:59.000Z,19.31
2018-05-25T16:07:26.678Z,19.30
2018-05-25T16:09:54.249Z,19.30
2018-05-25T16:12:22.145Z,19.31
2018-05-25T16:14:49.786Z,19.34
2018-05-25T16:17:17.400Z,19.31
2018-05-25T16:19:44.957Z,19.29
2018-05-25T16:22:12.531Z,19.29
2018-05-25T16:24:40.158Z,19.30
2018-05-25T16:27:07.721Z,19.21
2018-05-25T16:29:35.357Z,19.18
2018-05-25T16:32:03.230Z,19.22
2018-05-25T16:34:30.845Z,19.25
2018-05-25T16:36:58.481Z,19.20
2018-05-25T16:39:26.044Z,19.19
2018-05-25T16:41:53.777Z,19.19
2018-05-25T16:44:21.493Z,19.17
2018-05-25T16:46:49.217Z,19.15
2018-05-25T16:49:16.915Z,19.16
2018-05-25T16:51:44.542Z,19.15
2018-05-25T16:54:12.100Z,19.13
2018-05-25T16:56:39.841Z,19.06
2018-05-25T16:59:07.521Z,19.04
2018-05-25T17:01:35.131Z,18.99
2018-05-25T17:04:02.942Z,18.96
2018-05-25T17:06:30.646Z,18.93
2018-05-25T17:08:58.204Z,18.89
2018-05-25T17:11:25.785Z,18.88
2018-05-25T17:13:53.338Z,18.84
2018-05-25T17:16:20.907Z,18.87
2018-05-25T17:18:48.522Z,18.88
2018-05-25T17:21:16.375Z,18.88
2018-05-25T17:23:43.991Z,18.90
2018-05-25T17:26:11.567Z,18.89
2018-05-25T17:28:39.135Z,18.94
2018-05-25T17:31:06.802Z,18.95
2018-05-25T17:33:34.417Z,18.85
2018-05-25T17:36:02.077Z,18.79
2018-05-25T17:38:29.637Z,18.82
2018-05-25T17:40:57.310Z,18.81
2018-05-25T17:43:24.957Z,18.74
2018-05-25T17:45:52.584Z,18.71
2018-05-25T17:48:20.372Z,18.69
2018-05-25T17:50:47.949Z,18.63
2018-05-25T17:53:15.564Z,18.59
2018-05-25T17:55:43.202Z,18.55
2018-05-25T17:58:10.846Z,18.58
2018-05-25T18:00:38.998Z,18.53
2018-05-25T18:03:06.712Z,18.57
2018-05-25T18:05:34.303Z,18.59
2018-05-25T18:08:01.868Z,18.48
2018-05-25T18:10:29.637Z,18.47
2018-05-25T18:12:57.196Z,18.42
2018-05-25T18:15:24.752Z,18.37
2018-05-25T18:17:52.312Z,18.33
2018-05-25T18:20:19.883Z,18.25
2018-05-25T18:22:47.448Z,18.22
2018-05-25T18:25:15.004Z,18.23
2018-05-25T18:27:42.636Z,18.20
2018-05-25T18:30:10.188Z,18.18
2018-05-25T18:32:37.801Z,18.15
2018-05-25T18:35:05.428Z,18.10
2018-05-25T18:37:33.033Z,18.12
2018-05-25T18:40:00.600Z,18.06
2018-05-25T18:42:28.973Z,18.08
2018-05-25T18:44:56.591Z,18.06
2018-05-25T18:47:24.301Z,18.07
2018-05-25T18:49:52.035Z,18.10
2018-05-25T18:52:19.799Z,18.12
2018-05-25T18:54:47.563Z,18.08
2018-05-25T18:57:15.136Z,18.11
2018-05-25T18:59:42.689Z,18.14
2018-05-25T19:02:10.517Z,18.16
2018-05-25T19:04:38.082Z,18.08
2018-05-25T19:07:05.856Z,18.08
2018-05-25T19:09:33.577Z,18.09
2018-05-25T19:12:01.130Z,18.06
2018-05-25T19:14:28.745Z,18.03
2018-05-25T19:16:56.296Z,17.95
2018-05-25T19:19:23.996Z,18.00
2018-05-25T19:21:51.668Z,18.04
2018-05-25T19:24:19.212Z,18.08
2018-05-25T19:26:46.830Z,18.12
2018-05-25T19:29:14.388Z,18.06
2018-05-25T19:31:42.032Z,17.99
2018-05-25T19:34:09.628Z,17.91
2018-05-25T19:36:37.662Z,17.84
2018-05-25T19:39:06.173Z,17.80
2018-05-25T19:41:33.809Z,17.83
2018-05-25T19:44:01.422Z,17.81
2018-05-25T19:46:28.944Z,17.81
2018-05-25T19:48:56.672Z,17.78
2018-05-25T19:51:24.485Z,17.80
2018-05-25T19:53:52.324Z,17.86
2018-05-25T19:56:20.308Z,17.84
2018-05-25T19:58:47.920Z,17.84
2018-05-25T20:01:15.488Z,17.82
2018-05-25T20:03:43.161Z,17.77
2018-05-25T20:06:10.764Z,17.73
2018-05-25T20:08:38.548Z,17.73
2018-05-25T20:11:06.366Z,17.79
2018-05-25T20:13:33.933Z,17.70
2018-05-25T20:16:01.558Z,17.70
2018-05-25T20:18:29.421Z,17.55
2018-05-25T20:20:57.141Z,17.55
2018-05-25T20:23:24.790Z,17.49
2018-05-25T20:25:52.577Z,17.49
2018-05-25T20:28:20.244Z,17.50
2018-05-25T20:30:47.813Z,17.50
2018-05-25T20:33:15.421Z,17.48
2018-05-25T20:35:43.122Z,17.46
2018-05-25T20:38:10.693Z,17.40
2018-05-25T20:40:38.264Z,17.35
2018-05-25T20:43:05.931Z,17.29
2018-05-25T20:45:33.501Z,17.21
2018-05-25T20:48:01.048Z,17.08
2018-05-25T20:50:28.621Z,17.08
2018-05-25T20:52:56.170Z,17.03
2018-05-25T20:55:23.840Z,16.98
2018-05-25T20:57:51.511Z,16.93
2018-05-25T21:00:19.061Z,16.90
2018-05-25T21:02:46.621Z,16.90
2018-05-25T21:05:14.221Z,16.84
2018-05-25T21:07:41.897Z,16.82
2018-05-25T21:10:09.456Z,16.81
2018-05-25T21:12:37.143Z,16.76
2018-05-25T21:15:04.724Z,16.74
2018-05-25T21:17:32.329Z,16.69
2018-05-25T21:20:00.006Z,16.70
2018-05-25T21:22:27.565Z,16.66
2018-05-25T21:24:55.229Z,16.65
2018-05-25T21:27:22.848Z,16.63
2018-05-25T21:29:50.457Z,16.59
2018-05-25T21:32:18.077Z,16.51
2018-05-25T21:34:45.640Z,16.50
2018-05-25T21:37:13.357Z,16.51
2018-05-25T21:39:40.884Z,16.53
2018-05-25T21:42:08.444Z,16.50
2018-05-25T21:44:36.145Z,16.45
2018-05-25T21:47:03.761Z,16.47
2018-05-25T21:49:31.586Z,16.45
2018-05-25T21:51:59.136Z,16.45
2018-05-25T21:54:26.760Z,16.43
2018-05-25T21:56:54.319Z,16.41
2018-05-25T21:59:21.957Z,16.41
2018-05-25T22:01:49.532Z,16.36
2018-05-25T22:04:17.090Z,16.37
2018-05-25T22:06:44.753Z,16.36
2018-05-25T22:09:12.420Z,16.33
2018-05-25T22:11:40.049Z,16.30
2018-05-25T22:14:07.911Z,16.25
2018-05-25T22:16:35.689Z,16.22
2018-05-25T22:19:03.272Z,16.22
2018-05-25T22:21:31.123Z,16.22
2018-05-25T22:23:58.680Z,16.18
2018-05-25T22:26:26.467Z,16.14
2018-05-25T22:28:54.085Z,16.23
2018-05-25T22:31:21.750Z,16.26
2018-05-25T22:33:49.332Z,16.26
2018-05-25T22:36:16.881Z,16.28
2018-05-25T22:38:44.497Z,16.30
2018-05-25T22:41:12.169Z,16.32
2018-05-25T22:43:51.476Z,16.27
2018-05-25T22:46:30.976Z,16.26
2018-05-25T22:49:10.548Z,16.20
2018-05-25T22:51:49.897Z,16.12
2018-05-25T22:54:33.989Z,16.10
2018-05-25T22:57:01.560Z,16.09
2018-05-25T22:59:29.298Z,16.08
2018-05-25T23:01:56.868Z,16.11
2018-05-25T23:04:24.552Z,16.08
2018-05-25T23:06:52.268Z,16.07
2018-05-25T23:09:19.812Z,16.06
2018-05-25T23:11:47.489Z,16.08
2018-05-25T23:14:15.032Z,15.99
2018-05-25T23:16:42.594Z,16.00
2018-05-25T23:19:10.261Z,15.96
2018-05-25T23:21:37.812Z,15.94
2018-05-25T23:24:05.497Z,15.94
2018-05-25T23:26:33.061Z,15.94
2018-05-25T23:29:00.682Z,15.90
2018-05-25T23:31:28.241Z,15.86
2018-05-25T23:33:55.865Z,15.87
2018-05-25T23:36:23.685Z,15.85
2018-05-25T23:38:51.245Z,15.84
2018-05-25T23:41:18.805Z,15.80
2018-05-25T23:43:46.405Z,15.82
2018-05-25T23:46:14.069Z,15.82
2018-05-25T23:48:41.685Z,15.77
2018-05-25T23:51:09.395Z,15.76
2018-05-25T23:53:37.212Z,15.79
2018-05-25T23:56:04.779Z,15.77
2018-05-25T23:58:32.652Z,15.68
